sensor_id;sensor_type;location;lat;lon;timestamp;P1;durP1;ratioP1;P2;durP2;ratioP2
9536;SDS011;4807;48.024;11.726;2023-03-01T00:00:21;16.93;;;10.87;;
9536;SDS011;4807;48.024;11.726;2023-03-01T00:03:29;14.13;;;10.73;;
9536;SDS011;4807;48.024;11.726;2023-03-01T00:06:39;16.87;;;11.97;;
9536;SDS011;4807;48.024;11.726;2023-03-01T00:09:52;15.03;;;11.13;;
9536;SDS011;4807;48.024;11.726;2023-03-01T00:13:00;15.43;;;10.60;;
9536;SDS011;4807;48.024;11.726;2023-03-01T00:16:09;17.37;;;10.80;;
9536;SDS011;4807;48.024;11.726;2023-03-01T00:19:20;16.50;;;10.30;;
9536;SDS011;4807;48.024;11.726;2023-03-01T00:22:30;16.80;;;10.97;;
9536;SDS011;4807;48.024;11.726;2023-03-01T00:25:40;15.50;;;10.63;;
9536;SDS011;4807;48.024;11.726;2023-03-01T00:28:53;15.13;;;10.70;;
9536;SDS011;4807;48.024;11.726;2023-03-01T00:32:02;15.27;;;10.60;;
9536;SDS011;4807;48.024;11.726;2023-03-01T00:35:11;17.60;;;11.87;;
9536;SDS011;4807;48.024;11.726;2023-03-01T00:38:20;15.97;;;11.10;;
9536;SDS011;4807;48.024;11.726;2023-03-01T00:41:31;17.37;;;11.47;;
9536;SDS011;4807;48.024;11.726;2023-03-01T00:44:42;14.67;;;10.87;;
9536;SDS011;4807;48.024;11.726;2023-03-01T00:47:51;17.97;;;12.20;;
9536;SDS011;4807;48.024;11.726;2023-03-01T00:51:04;15.47;;;10.93;;
9536;SDS011;4807;48.024;11.726;2023-03-01T00:54:15;17.97;;;10.80;;
9536;SDS011;4807;48.024;11.726;2023-03-01T00:57:26;16.17;;;11.63;;
9536;SDS011;4807;48.024;11.726;2023-03-01T01:00:34;15.77;;;11.83;;
9536;SDS011;4807;48.024;11.726;2023-03-01T01:03:43;16.57;;;11.17;;
9536;SDS011;4807;48.024;11.726;2023-03-01T01:06:53;15.67;;;10.50;;
9536;SDS011;4807;48.024;11.726;2023-03-01T01:10:05;17.20;;;11.37;;
9536;SDS011;4807;48.024;11.726;2023-03-01T01:13:14;16.47;;;11.87;;
9536;SDS011;4807;48.024;11.726;2023-03-01T01:16:23;16.23;;;11.47;;
9536;SDS011;4807;48.024;11.726;2023-03-01T01:19:35;18.10;;;12.43;;
9536;SDS011;4807;48.024;11.726;2023-03-01T01:22:43;18.40;;;10.47;;
9536;SDS011;4807;48.024;11.726;2023-03-01T01:25:53;17.20;;;11.37;;
9536;SDS011;4807;48.024;11.726;2023-03-01T01:29:01;14.67;;;10.90;;
9536;SDS011;4807;48.024;11.726;2023-03-01T01:32:12;14.77;;;10.63;;
9536;SDS011;4807;48.024;11.726;2023-03-01T01:35:20;16.27;;;10.87;;
9536;SDS011;4807;48.024;11.726;2023-03-01T01:38:29;19.43;;;10.87;;
9536;SDS011;4807;48.024;11.726;2023-03-01T01:41:39;13.43;;;10.23;;
9536;SDS011;4807;48.024;11.726;2023-03-01T01:48:39;15.53;;;10.80;;
9536;SDS011;4807;48.024;11.726;2023-03-01T01:51:55;17.10;;;11.13;;
9536;SDS011;4807;48.024;11.726;2023-03-01T01:55:13;18.60;;;11.37;;
9536;SDS011;4807;48.024;11.726;2023-03-01T01:58:29;15.17;;;10.43;;
9536;SDS011;4807;48.024;11.726;2023-03-01T02:01:38;17.53;;;11.73;;
9536;SDS011;4807;48.024;11.726;2023-03-01T02:04:46;16.40;;;11.63;;
9536;SDS011;4807;48.024;11.726;2023-03-01T02:08:00;17.60;;;10.90;;
9536;SDS011;4807;48.024;11.726;2023-03-01T02:11:08;13.37;;;10.00;;
9536;SDS011;4807;48.024;11.726;2023-03-01T02:14:22;16.03;;;11.33;;
9536;SDS011;4807;48.024;11.726;2023-03-01T02:17:30;17.50;;;11.03;;
9536;SDS011;4807;48.024;11.726;2023-03-01T02:20:44;16.20;;;11.47;;
9536;SDS011;4807;48.024;11.726;2023-03-01T02:24:10;17.40;;;10.87;;
9536;SDS011;4807;48.024;11.726;2023-03-01T02:27:33;19.97;;;11.50;;
9536;SDS011;4807;48.024;11.726;2023-03-01T02:30:52;16.33;;;11.10;;
9536;SDS011;4807;48.024;11.726;2023-03-01T02:34:20;18.37;;;11.90;;
9536;SDS011;4807;48.024;11.726;2023-03-01T02:37:33;15.67;;;11.93;;
9536;SDS011;4807;48.024;11.726;2023-03-01T02:40:43;17.27;;;12.17;;
9536;SDS011;4807;48.024;11.726;2023-03-01T02:43:52;19.37;;;12.07;;
9536;SDS011;4807;48.024;11.726;2023-03-01T02:47:02;15.73;;;11.33;;
9536;SDS011;4807;48.024;11.726;2023-03-01T02:50:15;18.63;;;11.70;;
9536;SDS011;4807;48.024;11.726;2023-03-01T02:53:48;15.20;;;10.93;;
9536;SDS011;4807;48.024;11.726;2023-03-01T02:57:14;17.30;;;10.90;;
9536;SDS011;4807;48.024;11.726;2023-03-01T03:00:23;16.50;;;11.13;;
9536;SDS011;4807;48.024;11.726;2023-03-01T03:03:41;17.90;;;12.80;;
9536;SDS011;4807;48.024;11.726;2023-03-01T03:06:51;18.60;;;11.23;;
9536;SDS011;4807;48.024;11.726;2023-03-01T03:09:59;16.53;;;11.50;;
9536;SDS011;4807;48.024;11.726;2023-03-01T03:13:08;15.27;;;10.93;;
9536;SDS011;4807;48.024;11.726;2023-03-01T03:16:20;16.40;;;10.83;;
9536;SDS011;4807;48.024;11.726;2023-03-01T03:19:31;18.57;;;11.23;;
9536;SDS011;4807;48.024;11.726;2023-03-01T03:22:40;15.77;;;11.47;;
9536;SDS011;4807;48.024;11.726;2023-03-01T03:25:48;16.73;;;11.50;;
9536;SDS011;4807;48.024;11.726;2023-03-01T03:28:57;16.43;;;10.97;;
9536;SDS011;4807;48.024;11.726;2023-03-01T03:32:05;16.50;;;11.33;;
9536;SDS011;4807;48.024;11.726;2023-03-01T03:35:15;15.97;;;11.07;;
9536;SDS011;4807;48.024;11.726;2023-03-01T03:38:23;14.87;;;11.27;;
9536;SDS011;4807;48.024;11.726;2023-03-01T03:41:34;21.60;;;11.77;;
9536;SDS011;4807;48.024;11.726;2023-03-01T03:44:42;16.50;;;11.23;;
9536;SDS011;4807;48.024;11.726;2023-03-01T03:47:51;17.53;;;10.90;;
9536;SDS011;4807;48.024;11.726;2023-03-01T03:51:00;17.70;;;12.77;;
9536;SDS011;4807;48.024;11.726;2023-03-01T03:54:11;17.13;;;11.50;;
9536;SDS011;4807;48.024;11.726;2023-03-01T03:57:19;16.40;;;11.20;;
9536;SDS011;4807;48.024;11.726;2023-03-01T04:00:28;16.87;;;12.67;;
9536;SDS011;4807;48.024;11.726;2023-03-01T04:03:36;17.87;;;11.37;;
9536;SDS011;4807;48.024;11.726;2023-03-01T04:06:46;16.40;;;11.50;;
9536;SDS011;4807;48.024;11.726;2023-03-01T04:09:54;18.03;;;11.77;;
9536;SDS011;4807;48.024;11.726;2023-03-01T04:13:03;17.30;;;10.33;;
9536;SDS011;4807;48.024;11.726;2023-03-01T04:16:12;15.40;;;11.47;;
9536;SDS011;4807;48.024;11.726;2023-03-01T04:19:20;15.30;;;11.30;;
9536;SDS011;4807;48.024;11.726;2023-03-01T04:22:30;16.93;;;11.43;;
9536;SDS011;4807;48.024;11.726;2023-03-01T04:25:38;18.73;;;11.83;;
9536;SDS011;4807;48.024;11.726;2023-03-01T04:28:48;19.90;;;12.73;;
9536;SDS011;4807;48.024;11.726;2023-03-01T04:31:56;17.07;;;11.80;;
9536;SDS011;4807;48.024;11.726;2023-03-01T04:35:05;16.77;;;11.13;;
9536;SDS011;4807;48.024;11.726;2023-03-01T04:38:16;16.90;;;12.63;;
9536;SDS011;4807;48.024;11.726;2023-03-01T04:41:25;17.93;;;11.83;;
9536;SDS011;4807;48.024;11.726;2023-03-01T04:44:33;18.43;;;11.63;;
9536;SDS011;4807;48.024;11.726;2023-03-01T04:47:42;17.77;;;11.93;;
9536;SDS011;4807;48.024;11.726;2023-03-01T04:50:53;15.57;;;11.47;;
9536;SDS011;4807;48.024;11.726;2023-03-01T04:54:03;22.97;;;12.10;;
9536;SDS011;4807;48.024;11.726;2023-03-01T04:57:15;19.13;;;11.67;;
9536;SDS011;4807;48.024;11.726;2023-03-01T05:00:23;17.77;;;11.53;;
9536;SDS011;4807;48.024;11.726;2023-03-01T05:03:32;18.00;;;11.40;;
9536;SDS011;4807;48.024;11.726;2023-03-01T05:06:40;18.23;;;11.47;;
9536;SDS011;4807;48.024;11.726;2023-03-01T05:09:50;17.93;;;12.27;;
9536;SDS011;4807;48.024;11.726;2023-03-01T05:13:00;19.77;;;12.77;;
9536;SDS011;4807;48.024;11.726;2023-03-01T05:16:10;21.77;;;11.27;;
9536;SDS011;4807;48.024;11.726;2023-03-01T05:19:18;17.00;;;11.57;;
9536;SDS011;4807;48.024;11.726;2023-03-01T05:22:29;20.37;;;11.87;;
9536;SDS011;4807;48.024;11.726;2023-03-01T05:25:38;17.53;;;12.27;;
9536;SDS011;4807;48.024;11.726;2023-03-01T05:28:47;20.70;;;12.43;;
9536;SDS011;4807;48.024;11.726;2023-03-01T05:31:57;15.03;;;10.83;;
9536;SDS011;4807;48.024;11.726;2023-03-01T05:35:07;18.63;;;12.13;;
9536;SDS011;4807;48.024;11.726;2023-03-01T05:38:19;18.67;;;12.67;;
9536;SDS011;4807;48.024;11.726;2023-03-01T05:41:30;16.17;;;11.03;;
9536;SDS011;4807;48.024;11.726;2023-03-01T05:44:38;18.67;;;11.20;;
9536;SDS011;4807;48.024;11.726;2023-03-01T05:47:47;19.23;;;12.80;;
9536;SDS011;4807;48.024;11.726;2023-03-01T05:50:57;20.97;;;11.53;;
9536;SDS011;4807;48.024;11.726;2023-03-01T05:54:07;21.23;;;12.87;;
9536;SDS011;4807;48.024;11.726;2023-03-01T05:57:17;18.93;;;12.33;;
9536;SDS011;4807;48.024;11.726;2023-03-01T06:00:25;16.87;;;11.67;;
9536;SDS011;4807;48.024;11.726;2023-03-01T06:03:34;20.63;;;12.57;;
9536;SDS011;4807;48.024;11.726;2023-03-01T06:06:42;18.00;;;11.93;;
9536;SDS011;4807;48.024;11.726;2023-03-01T06:09:50;16.63;;;11.23;;
9536;SDS011;4807;48.024;11.726;2023-03-01T06:13:00;18.30;;;12.47;;
9536;SDS011;4807;48.024;11.726;2023-03-01T06:16:08;16.77;;;11.60;;
9536;SDS011;4807;48.024;11.726;2023-03-01T06:19:17;15.77;;;11.73;;
9536;SDS011;4807;48.024;11.726;2023-03-01T06:22:26;19.80;;;13.17;;
9536;SDS011;4807;48.024;11.726;2023-03-01T06:25:35;23.33;;;12.57;;
9536;SDS011;4807;48.024;11.726;2023-03-01T06:28:44;16.03;;;12.17;;
9536;SDS011;4807;48.024;11.726;2023-03-01T06:31:53;18.27;;;12.27;;
9536;SDS011;4807;48.024;11.726;2023-03-01T06:35:01;18.40;;;11.10;;
9536;SDS011;4807;48.024;11.726;2023-03-01T06:38:09;18.87;;;12.80;;
9536;SDS011;4807;48.024;11.726;2023-03-01T06:41:18;23.17;;;12.57;;
9536;SDS011;4807;48.024;11.726;2023-03-01T06:44:27;19.30;;;12.17;;
9536;SDS011;4807;48.024;11.726;2023-03-01T06:47:36;20.47;;;11.73;;
9536;SDS011;4807;48.024;11.726;2023-03-01T06:50:44;17.87;;;11.20;;
9536;SDS011;4807;48.024;11.726;2023-03-01T06:53:53;18.90;;;11.47;;
9536;SDS011;4807;48.024;11.726;2023-03-01T06:57:01;18.23;;;11.07;;
9536;SDS011;4807;48.024;11.726;2023-03-01T07:00:11;19.20;;;13.17;;
9536;SDS011;4807;48.024;11.726;2023-03-01T07:03:21;19.60;;;12.30;;
9536;SDS011;4807;48.024;11.726;2023-03-01T07:06:30;22.87;;;12.77;;
9536;SDS011;4807;48.024;11.726;2023-03-01T07:09:38;17.60;;;11.37;;
9536;SDS011;4807;48.024;11.726;2023-03-01T07:12:47;21.17;;;11.97;;
9536;SDS011;4807;48.024;11.726;2023-03-01T07:15:57;19.80;;;12.60;;
9536;SDS011;4807;48.024;11.726;2023-03-01T07:19:05;16.63;;;11.97;;
9536;SDS011;4807;48.024;11.726;2023-03-01T07:22:14;19.40;;;12.87;;
9536;SDS011;4807;48.024;11.726;2023-03-01T07:25:22;20.13;;;12.53;;
9536;SDS011;4807;48.024;11.726;2023-03-01T07:28:30;21.93;;;13.23;;
9536;SDS011;4807;48.024;11.726;2023-03-01T07:31:43;16.03;;;11.50;;
9536;SDS011;4807;48.024;11.726;2023-03-01T07:34:52;17.93;;;11.97;;
9536;SDS011;4807;48.024;11.726;2023-03-01T07:38:01;17.87;;;11.97;;
9536;SDS011;4807;48.024;11.726;2023-03-01T07:41:10;17.23;;;12.27;;
9536;SDS011;4807;48.024;11.726;2023-03-01T07:44:18;15.93;;;10.93;;
9536;SDS011;4807;48.024;11.726;2023-03-01T07:47:28;19.03;;;13.07;;
9536;SDS011;4807;48.024;11.726;2023-03-01T07:50:36;24.02;;;15.90;;
9536;SDS011;4807;48.024;11.726;2023-03-01T07:53:45;19.53;;;13.57;;
9536;SDS011;4807;48.024;11.726;2023-03-01T07:56:55;23.17;;;13.43;;
9536;SDS011;4807;48.024;11.726;2023-03-01T08:00:04;18.73;;;12.20;;
9536;SDS011;4807;48.024;11.726;2023-03-01T08:03:19;19.33;;;12.80;;
9536;SDS011;4807;48.024;11.726;2023-03-01T08:06:27;23.50;;;12.80;;
9536;SDS011;4807;48.024;11.726;2023-03-01T08:09:35;17.57;;;12.03;;
9536;SDS011;4807;48.024;11.726;2023-03-01T08:12:44;20.30;;;12.43;;
9536;SDS011;4807;48.024;11.726;2023-03-01T08:15:54;19.30;;;12.53;;
9536;SDS011;4807;48.024;11.726;2023-03-01T08:19:10;22.07;;;13.10;;
9536;SDS011;4807;48.024;11.726;2023-03-01T08:22:19;17.87;;;12.80;;
9536;SDS011;4807;48.024;11.726;2023-03-01T08:25:27;20.00;;;13.30;;
9536;SDS011;4807;48.024;11.726;2023-03-01T08:28:36;21.73;;;12.60;;
9536;SDS011;4807;48.024;11.726;2023-03-01T08:31:45;17.03;;;12.07;;
9536;SDS011;4807;48.024;11.726;2023-03-01T08:34:55;16.93;;;11.63;;
9536;SDS011;4807;48.024;11.726;2023-03-01T08:38:03;21.03;;;12.27;;
9536;SDS011;4807;48.024;11.726;2023-03-01T08:41:12;20.47;;;13.63;;
9536;SDS011;4807;48.024;11.726;2023-03-01T08:44:20;18.40;;;11.70;;
9536;SDS011;4807;48.024;11.726;2023-03-01T08:47:28;17.23;;;11.73;;
9536;SDS011;4807;48.024;11.726;2023-03-01T08:50:38;18.27;;;13.13;;
9536;SDS011;4807;48.024;11.726;2023-03-01T08:53:47;17.87;;;11.50;;
9536;SDS011;4807;48.024;11.726;2023-03-01T08:56:56;19.23;;;12.30;;
9536;SDS011;4807;48.024;11.726;2023-03-01T09:00:05;17.00;;;12.10;;
9536;SDS011;4807;48.024;11.726;2023-03-01T09:03:15;21.20;;;12.20;;
9536;SDS011;4807;48.024;11.726;2023-03-01T09:06:25;18.57;;;11.57;;
9536;SDS011;4807;48.024;11.726;2023-03-01T09:09:34;18.93;;;12.07;;
9536;SDS011;4807;48.024;11.726;2023-03-01T09:12:42;19.57;;;11.10;;
9536;SDS011;4807;48.024;11.726;2023-03-01T09:15:50;20.57;;;12.03;;
9536;SDS011;4807;48.024;11.726;2023-03-01T09:18:59;19.00;;;12.07;;
9536;SDS011;4807;48.024;11.726;2023-03-01T09:22:08;17.47;;;12.93;;
9536;SDS011;4807;48.024;11.726;2023-03-01T09:25:17;19.73;;;12.73;;
9536;SDS011;4807;48.024;11.726;2023-03-01T09:28:25;19.67;;;12.57;;
9536;SDS011;4807;48.024;11.726;2023-03-01T09:31:35;23.50;;;13.93;;
9536;SDS011;4807;48.024;11.726;2023-03-01T09:34:43;19.60;;;13.27;;
9536;SDS011;4807;48.024;11.726;2023-03-01T09:38:12;22.50;;;12.83;;
9536;SDS011;4807;48.024;11.726;2023-03-01T09:41:24;18.43;;;12.67;;
9536;SDS011;4807;48.024;11.726;2023-03-01T09:44:51;22.27;;;13.40;;
9536;SDS011;4807;48.024;11.726;2023-03-01T09:48:09;22.03;;;12.70;;
9536;SDS011;4807;48.024;11.726;2023-03-01T09:51:26;19.43;;;14.10;;
9536;SDS011;4807;48.024;11.726;2023-03-01T09:54:39;20.30;;;12.77;;
9536;SDS011;4807;48.024;11.726;2023-03-01T09:57:48;24.40;;;13.73;;
9536;SDS011;4807;48.024;11.726;2023-03-01T10:01:04;20.93;;;12.93;;
9536;SDS011;4807;48.024;11.726;2023-03-01T10:04:40;22.33;;;13.30;;
9536;SDS011;4807;48.024;11.726;2023-03-01T10:07:57;18.83;;;13.73;;
9536;SDS011;4807;48.024;11.726;2023-03-01T10:11:34;21.40;;;14.00;;
9536;SDS011;4807;48.024;11.726;2023-03-01T10:14:48;22.73;;;13.27;;
9536;SDS011;4807;48.024;11.726;2023-03-01T10:18:09;19.07;;;13.53;;
9536;SDS011;4807;48.024;11.726;2023-03-01T10:21:25;18.13;;;12.43;;
9536;SDS011;4807;48.024;11.726;2023-03-01T10:24:38;18.10;;;12.80;;
9536;SDS011;4807;48.024;11.726;2023-03-01T10:27:49;19.00;;;12.70;;
9536;SDS011;4807;48.024;11.726;2023-03-01T10:31:01;20.43;;;12.47;;
9536;SDS011;4807;48.024;11.726;2023-03-01T10:34:11;20.10;;;12.77;;
9536;SDS011;4807;48.024;11.726;2023-03-01T10:37:29;18.80;;;11.73;;
9536;SDS011;4807;48.024;11.726;2023-03-01T10:40:49;19.20;;;12.80;;
9536;SDS011;4807;48.024;11.726;2023-03-01T10:44:04;19.67;;;13.40;;
9536;SDS011;4807;48.024;11.726;2023-03-01T10:47:43;20.33;;;13.43;;
9536;SDS011;4807;48.024;11.726;2023-03-01T10:51:04;30.03;;;14.67;;
9536;SDS011;4807;48.024;11.726;2023-03-01T10:54:16;22.13;;;12.37;;
9536;SDS011;4807;48.024;11.726;2023-03-01T10:57:29;19.13;;;12.37;;
9536;SDS011;4807;48.024;11.726;2023-03-01T11:00:50;18.37;;;12.83;;
9536;SDS011;4807;48.024;11.726;2023-03-01T11:04:09;20.13;;;11.60;;
9536;SDS011;4807;48.024;11.726;2023-03-01T11:07:19;17.97;;;12.20;;
9536;SDS011;4807;48.024;11.726;2023-03-01T11:10:30;18.80;;;11.57;;
9536;SDS011;4807;48.024;11.726;2023-03-01T11:13:47;20.80;;;12.33;;
9536;SDS011;4807;48.024;11.726;2023-03-01T11:17:13;19.90;;;12.57;;
9536;SDS011;4807;48.024;11.726;2023-03-01T11:20:31;20.17;;;12.20;;
9536;SDS011;4807;48.024;11.726;2023-03-01T11:23:43;20.50;;;11.63;;
9536;SDS011;4807;48.024;11.726;2023-03-01T11:26:54;22.33;;;12.77;;
9536;SDS011;4807;48.024;11.726;2023-03-01T11:30:04;18.47;;;12.27;;
9536;SDS011;4807;48.024;11.726;2023-03-01T11:33:30;18.20;;;11.17;;
9536;SDS011;4807;48.024;11.726;2023-03-01T11:36:48;15.83;;;10.87;;
9536;SDS011;4807;48.024;11.726;2023-03-01T11:40:03;18.77;;;11.80;;
9536;SDS011;4807;48.024;11.726;2023-03-01T11:43:33;19.17;;;12.47;;
9536;SDS011;4807;48.024;11.726;2023-03-01T11:46:58;17.10;;;11.87;;
9536;SDS011;4807;48.024;11.726;2023-03-01T11:50:30;18.00;;;12.50;;
9536;SDS011;4807;48.024;11.726;2023-03-01T11:53:51;18.90;;;12.17;;
9536;SDS011;4807;48.024;11.726;2023-03-01T11:57:24;18.00;;;11.87;;
9536;SDS011;4807;48.024;11.726;2023-03-01T12:01:00;20.87;;;12.43;;
9536;SDS011;4807;48.024;11.726;2023-03-01T12:04:33;17.43;;;12.63;;
9536;SDS011;4807;48.024;11.726;2023-03-01T12:08:09;18.93;;;12.37;;
9536;SDS011;4807;48.024;11.726;2023-03-01T12:11:30;20.50;;;13.77;;
9536;SDS011;4807;48.024;11.726;2023-03-01T12:15:18;18.23;;;12.20;;
9536;SDS011;4807;48.024;11.726;2023-03-01T12:18:53;18.90;;;12.63;;
9536;SDS011;4807;48.024;11.726;2023-03-01T12:22:28;19.77;;;12.07;;
9536;SDS011;4807;48.024;11.726;2023-03-01T12:25:40;18.30;;;13.00;;
9536;SDS011;4807;48.024;11.726;2023-03-01T12:28:57;21.57;;;13.13;;
9536;SDS011;4807;48.024;11.726;2023-03-01T12:32:36;20.10;;;13.90;;
9536;SDS011;4807;48.024;11.726;2023-03-01T12:40:13;25.37;;;15.20;;
9536;SDS011;4807;48.024;11.726;2023-03-01T12:43:46;20.10;;;12.73;;
9536;SDS011;4807;48.024;11.726;2023-03-01T12:47:14;21.53;;;14.23;;
9536;SDS011;4807;48.024;11.726;2023-03-01T12:50:38;21.73;;;13.53;;
9536;SDS011;4807;48.024;11.726;2023-03-01T12:53:53;18.87;;;13.47;;
9536;SDS011;4807;48.024;11.726;2023-03-01T12:57:08;19.67;;;15.20;;
9536;SDS011;4807;48.024;11.726;2023-03-01T13:00:28;22.27;;;14.10;;
9536;SDS011;4807;48.024;11.726;2023-03-01T13:04:00;19.53;;;13.87;;
9536;SDS011;4807;48.024;11.726;2023-03-01T13:07:25;21.77;;;14.30;;
9536;SDS011;4807;48.024;11.726;2023-03-01T13:10:43;22.53;;;14.07;;
9536;SDS011;4807;48.024;11.726;2023-03-01T13:17:54;20.17;;;14.40;;
9536;SDS011;4807;48.024;11.726;2023-03-01T13:21:05;18.40;;;13.97;;
9536;SDS011;4807;48.024;11.726;2023-03-01T13:24:23;19.77;;;14.17;;
9536;SDS011;4807;48.024;11.726;2023-03-01T13:27:36;20.23;;;14.23;;
9536;SDS011;4807;48.024;11.726;2023-03-01T13:30:44;19.30;;;14.60;;
9536;SDS011;4807;48.024;11.726;2023-03-01T13:33:54;21.93;;;15.03;;
9536;SDS011;4807;48.024;11.726;2023-03-01T13:37:08;20.77;;;14.20;;
9536;SDS011;4807;48.024;11.726;2023-03-01T13:44:11;20.70;;;15.17;;
9536;SDS011;4807;48.024;11.726;2023-03-01T13:47:29;20.57;;;13.87;;
9536;SDS011;4807;48.024;11.726;2023-03-01T13:50:45;18.80;;;14.43;;
9536;SDS011;4807;48.024;11.726;2023-03-01T13:53:59;23.00;;;15.70;;
9536;SDS011;4807;48.024;11.726;2023-03-01T13:57:12;21.90;;;15.30;;
9536;SDS011;4807;48.024;11.726;2023-03-01T14:00:35;23.07;;;15.77;;
9536;SDS011;4807;48.024;11.726;2023-03-01T14:03:47;18.97;;;14.10;;
9536;SDS011;4807;48.024;11.726;2023-03-01T14:07:10;22.60;;;14.90;;
9536;SDS011;4807;48.024;11.726;2023-03-01T14:10:20;22.00;;;15.33;;
9536;SDS011;4807;48.024;11.726;2023-03-01T14:13:33;21.87;;;14.57;;
9536;SDS011;4807;48.024;11.726;2023-03-01T14:17:02;23.90;;;15.07;;
9536;SDS011;4807;48.024;11.726;2023-03-01T14:20:46;22.83;;;14.90;;
9536;SDS011;4807;48.024;11.726;2023-03-01T14:24:00;21.60;;;16.27;;
9536;SDS011;4807;48.024;11.726;2023-03-01T14:27:10;25.30;;;15.83;;
9536;SDS011;4807;48.024;11.726;2023-03-01T14:30:20;22.53;;;15.37;;
9536;SDS011;4807;48.024;11.726;2023-03-01T14:33:33;25.07;;;15.67;;
9536;SDS011;4807;48.024;11.726;2023-03-01T14:36:45;20.53;;;14.37;;
9536;SDS011;4807;48.024;11.726;2023-03-01T14:39:56;22.60;;;15.97;;
9536;SDS011;4807;48.024;11.726;2023-03-01T14:43:08;23.73;;;15.90;;
9536;SDS011;4807;48.024;11.726;2023-03-01T14:46:26;22.10;;;14.87;;
9536;SDS011;4807;48.024;11.726;2023-03-01T14:49:41;26.30;;;16.60;;
9536;SDS011;4807;48.024;11.726;2023-03-01T14:52:51;22.60;;;16.03;;
9536;SDS011;4807;48.024;11.726;2023-03-01T14:56:05;22.37;;;16.57;;
9536;SDS011;4807;48.024;11.726;2023-03-01T14:59:21;23.40;;;15.13;;
9536;SDS011;4807;48.024;11.726;2023-03-01T15:02:31;21.10;;;15.40;;
9536;SDS011;4807;48.024;11.726;2023-03-01T15:05:41;21.40;;;15.87;;
9536;SDS011;4807;48.024;11.726;2023-03-01T15:08:52;23.53;;;15.90;;
9536;SDS011;4807;48.024;11.726;2023-03-01T15:15:48;22.30;;;15.13;;
9536;SDS011;4807;48.024;11.726;2023-03-01T15:19:01;21.77;;;15.67;;
9536;SDS011;4807;48.024;11.726;2023-03-01T15:22:13;28.53;;;16.97;;
9536;SDS011;4807;48.024;11.726;2023-03-01T15:25:25;22.07;;;15.37;;
9536;SDS011;4807;48.024;11.726;2023-03-01T15:28:38;23.17;;;15.47;;
9536;SDS011;4807;48.024;11.726;2023-03-01T15:31:58;22.20;;;14.80;;
9536;SDS011;4807;48.024;11.726;2023-03-01T15:38:51;21.93;;;15.60;;
9536;SDS011;4807;48.024;11.726;2023-03-01T15:42:03;22.30;;;15.37;;
9536;SDS011;4807;48.024;11.726;2023-03-01T15:45:22;21.03;;;14.70;;
9536;SDS011;4807;48.024;11.726;2023-03-01T15:48:33;25.87;;;16.00;;
9536;SDS011;4807;48.024;11.726;2023-03-01T15:51:41;22.23;;;14.90;;
9536;SDS011;4807;48.024;11.726;2023-03-01T15:54:50;22.40;;;15.17;;
9536;SDS011;4807;48.024;11.726;2023-03-01T15:57:59;23.87;;;15.77;;
9536;SDS011;4807;48.024;11.726;2023-03-01T16:01:13;24.20;;;15.93;;
9536;SDS011;4807;48.024;11.726;2023-03-01T16:04:24;19.03;;;14.87;;
9536;SDS011;4807;48.024;11.726;2023-03-01T16:07:32;22.63;;;16.07;;
9536;SDS011;4807;48.024;11.726;2023-03-01T16:10:45;24.57;;;15.70;;
9536;SDS011;4807;48.024;11.726;2023-03-01T16:13:56;27.13;;;17.47;;
9536;SDS011;4807;48.024;11.726;2023-03-01T16:17:06;25.03;;;16.70;;
9536;SDS011;4807;48.024;11.726;2023-03-01T16:20:16;24.77;;;16.27;;
9536;SDS011;4807;48.024;11.726;2023-03-01T16:23:34;22.10;;;15.67;;
9536;SDS011;4807;48.024;11.726;2023-03-01T16:26:42;26.40;;;16.53;;
9536;SDS011;4807;48.024;11.726;2023-03-01T16:29:50;27.57;;;16.77;;
9536;SDS011;4807;48.024;11.726;2023-03-01T16:32:59;23.43;;;15.80;;
9536;SDS011;4807;48.024;11.726;2023-03-01T16:36:16;22.87;;;15.63;;
9536;SDS011;4807;48.024;11.726;2023-03-01T16:39:27;22.07;;;15.43;;
9536;SDS011;4807;48.024;11.726;2023-03-01T16:42:35;22.57;;;15.63;;
9536;SDS011;4807;48.024;11.726;2023-03-01T16:45:46;25.77;;;16.23;;
9536;SDS011;4807;48.024;11.726;2023-03-01T16:48:56;24.53;;;15.47;;
9536;SDS011;4807;48.024;11.726;2023-03-01T16:52:04;22.80;;;15.77;;
9536;SDS011;4807;48.024;11.726;2023-03-01T16:55:12;26.80;;;16.53;;
9536;SDS011;4807;48.024;11.726;2023-03-01T16:58:20;27.37;;;16.20;;
9536;SDS011;4807;48.024;11.726;2023-03-01T17:01:31;28.77;;;18.07;;
9536;SDS011;4807;48.024;11.726;2023-03-01T17:04:51;42.90;;;21.53;;
9536;SDS011;4807;48.024;11.726;2023-03-01T17:08:00;34.80;;;19.67;;
9536;SDS011;4807;48.024;11.726;2023-03-01T17:11:09;32.90;;;19.97;;
9536;SDS011;4807;48.024;11.726;2023-03-01T17:14:20;30.37;;;19.27;;
9536;SDS011;4807;48.024;11.726;2023-03-01T17:17:28;30.90;;;19.10;;
9536;SDS011;4807;48.024;11.726;2023-03-01T17:20:38;30.73;;;19.43;;
9536;SDS011;4807;48.024;11.726;2023-03-01T17:23:46;31.43;;;20.53;;
9536;SDS011;4807;48.024;11.726;2023-03-01T17:26:55;28.87;;;19.10;;
9536;SDS011;4807;48.024;11.726;2023-03-01T17:30:04;29.47;;;19.60;;
9536;SDS011;4807;48.024;11.726;2023-03-01T17:33:15;43.13;;;27.67;;
9536;SDS011;4807;48.024;11.726;2023-03-01T17:36:26;46.93;;;29.23;;
9536;SDS011;4807;48.024;11.726;2023-03-01T17:39:34;36.43;;;24.47;;
9536;SDS011;4807;48.024;11.726;2023-03-01T17:42:43;35.00;;;23.00;;
9536;SDS011;4807;48.024;11.726;2023-03-01T17:45:51;33.83;;;21.40;;
9536;SDS011;4807;48.024;11.726;2023-03-01T17:49:00;33.77;;;22.20;;
9536;SDS011;4807;48.024;11.726;2023-03-01T17:52:09;32.20;;;22.20;;
9536;SDS011;4807;48.024;11.726;2023-03-01T17:55:21;40.03;;;23.60;;
9536;SDS011;4807;48.024;11.726;2023-03-01T17:58:29;43.63;;;26.10;;
9536;SDS011;4807;48.024;11.726;2023-03-01T18:01:39;38.17;;;23.70;;
9536;SDS011;4807;48.024;11.726;2023-03-01T18:04:49;36.77;;;23.37;;
9536;SDS011;4807;48.024;11.726;2023-03-01T18:07:58;30.37;;;20.97;;
9536;SDS011;4807;48.024;11.726;2023-03-01T18:11:07;51.23;;;25.40;;
9536;SDS011;4807;48.024;11.726;2023-03-01T18:14:16;43.70;;;23.53;;
9536;SDS011;4807;48.024;11.726;2023-03-01T18:17:24;44.27;;;24.07;;
9536;SDS011;4807;48.024;11.726;2023-03-01T18:20:34;38.97;;;22.67;;
9536;SDS011;4807;48.024;11.726;2023-03-01T18:23:44;37.57;;;23.60;;
9536;SDS011;4807;48.024;11.726;2023-03-01T18:26:53;31.30;;;20.13;;
9536;SDS011;4807;48.024;11.726;2023-03-01T18:30:04;31.33;;;20.03;;
9536;SDS011;4807;48.024;11.726;2023-03-01T18:33:15;41.10;;;22.83;;
9536;SDS011;4807;48.024;11.726;2023-03-01T18:36:24;43.97;;;25.10;;
9536;SDS011;4807;48.024;11.726;2023-03-01T18:39:36;30.23;;;19.13;;
9536;SDS011;4807;48.024;11.726;2023-03-01T18:42:44;27.43;;;17.80;;
9536;SDS011;4807;48.024;11.726;2023-03-01T18:45:54;30.80;;;18.47;;
9536;SDS011;4807;48.024;11.726;2023-03-01T18:49:04;44.53;;;23.43;;
9536;SDS011;4807;48.024;11.726;2023-03-01T18:52:13;47.53;;;23.73;;
9536;SDS011;4807;48.024;11.726;2023-03-01T18:55:23;54.87;;;26.60;;
9536;SDS011;4807;48.024;11.726;2023-03-01T18:58:31;44.20;;;25.33;;
9536;SDS011;4807;48.024;11.726;2023-03-01T19:01:41;42.10;;;23.60;;
9536;SDS011;4807;48.024;11.726;2023-03-01T19:04:50;36.47;;;22.80;;
9536;SDS011;4807;48.024;11.726;2023-03-01T19:07:58;48.10;;;25.57;;
9536;SDS011;4807;48.024;11.726;2023-03-01T19:11:08;66.37;;;34.10;;
9536;SDS011;4807;48.024;11.726;2023-03-01T19:14:18;105.43;;;48.00;;
9536;SDS011;4807;48.024;11.726;2023-03-01T19:17:26;102.10;;;46.87;;
9536;SDS011;4807;48.024;11.726;2023-03-01T19:20:36;77.23;;;39.77;;
9536;SDS011;4807;48.024;11.726;2023-03-01T19:23:46;53.47;;;31.33;;